Time;durP1;ratioP1;P1;durP2;ratioP2;P2;SDS_P1;SDS_P2;PMS_P1;PMS_P2;Temp;Humidity;BMP_temperature;BMP_pressure;BME280_temperature;BME280_humidity;BME280_pressure;Samples;Min_cycle;Max_cycle;Signal;HPM_P1;HPM_P2
2022/10/07 00:00:17;;;;;;;10.50;3.00;;;10.60;99.90;;;;;;5034562;28;20045;-64
2022/10/07 00:02:42;;;;;;;11.18;3.60;;;10.50;99.90;;;;;;5034394;28;20061;-64
2022/10/07 00:05:08;;;;;;;9.13;2.55;;;10.30;99.90;;;;;;5035822;28;20116;-64
2022/10/07 00:07:34;;;;;;;12.88;2.60;;;10.60;99.90;;;;;;5034454;28;20038;-64
2022/10/07 00:10:00;;;;;;;14.23;2.75;;;10.50;99.90;;;;;;5035535;28;20037;-64
2022/10/07 00:12:25;;;;;;;10.45;3.13;;;10.60;99.90;;;;;;5034531;28;20400;-64
2022/10/07 00:14:51;;;;;;;15.95;3.83;;;10.60;99.90;;;;;;5033901;28;20041;-64
2022/10/07 00:17:17;;;;;;;8.38;2.70;;;10.60;99.90;;;;;;5035479;28;20044;-64
2022/10/07 00:19:42;;;;;;;9.80;2.95;;;10.60;99.90;;;;;;5035608;28;20121;-64
2022/10/07 00:22:08;;;;;;;8.52;2.70;;;10.60;99.90;;;;;;5035312;28;20041;-64
2022/10/07 00:24:33;;;;;;;11.57;2.92;;;10.50;99.90;;;;;;5033992;28;20041;-64
2022/10/07 00:27:00;;;;;;;10.85;3.20;;;10.50;99.90;;;;;;5033911;28;20073;-64
2022/10/07 00:29:25;;;;;;;7.82;3.00;;;10.40;99.90;;;;;;5033998;28;20037;-64
2022/10/07 00:31:51;;;;;;;10.98;2.70;;;10.30;99.90;;;;;;5035262;28;20034;-64
2022/10/07 00:34:17;;;;;;;11.73;2.70;;;10.30;99.90;;;;;;5035178;28;20061;-64
2022/10/07 00:36:42;;;;;;;12.20;3.15;;;10.30;99.90;;;;;;5033950;28;20488;-64
2022/10/07 00:39:12;;;;;;;10.82;3.47;;;10.20;99.90;;;;;;5034911;28;20037;-64
2022/10/07 00:41:49;;;;;;;8.48;2.72;;;10.30;99.90;;;;;;5034908;28;20041;-64
2022/10/07 00:44:30;;;;;;;10.40;3.55;;;10.50;99.90;;;;;;5032043;28;20084;-64
2022/10/07 00:46:58;;;;;;;16.00;2.63;;;10.20;99.90;;;;;;5034879;28;20052;-64
2022/10/07 00:49:25;;;;;;;9.77;3.42;;;10.30;99.90;;;;;;5034677;28;20500;-64
2022/10/07 00:51:51;;;;;;;8.82;2.80;;;10.40;99.90;;;;;;5033505;28;20044;-64
2022/10/07 00:54:18;;;;;;;13.63;2.97;;;10.20;99.90;;;;;;5033409;28;20278;-64
2022/10/07 00:56:47;;;;;;;13.60;3.63;;;10.20;99.90;;;;;;5033564;28;20131;-64
2022/10/07 00:59:14;;;;;;;7.38;2.85;;;10.10;99.90;;;;;;5034812;28;20048;-64
2022/10/07 01:01:40;;;;;;;8.30;3.75;;;10.10;99.90;;;;;;5033459;28;20065;-64
2022/10/07 01:04:08;;;;;;;15.07;3.20;;;10.20;99.90;;;;;;5034360;28;20476;-64
2022/10/07 01:06:38;;;;;;;13.13;4.00;;;10.20;99.90;;;;;;5033116;28;20073;-64
2022/10/07 01:09:04;;;;;;;11.43;4.43;;;10.20;99.90;;;;;;5033027;28;20042;-64
2022/10/07 01:11:54;;;;;;;15.80;3.63;;;10.20;99.90;;;;;;5033276;28;20045;-64
2022/10/07 01:14:44;;;;;;;11.27;3.25;;;10.20;99.90;;;;;;5032987;28;20037;-64
2022/10/07 01:17:20;;;;;;;7.85;3.15;;;10.40;99.90;;;;;;5020477;28;20072;-64
2022/10/07 01:20:07;;;;;;;6.72;4.13;;;10.10;99.90;;;;;;5032832;28;20041;-64
2022/10/07 01:22:58;;;;;;;11.48;4.05;;;10.10;99.90;;;;;;5034116;28;20094;-64
2022/10/07 01:25:31;;;;;;;6.15;3.28;;;10.10;99.90;;;;;;5033962;28;20057;-64
2022/10/07 01:28:14;;;;;;;13.60;4.22;;;;;;;;;;5032127;28;20050;-64
2022/10/07 01:30:45;;;;;;;11.57;3.72;;;10.10;99.90;;;;;;5020353;28;20121;-64
2022/10/07 01:33:18;;;;;;;11.30;3.15;;;10.00;99.90;;;;;;5034293;28;20112;-64
2022/10/07 01:35:47;;;;;;;16.85;4.30;;;9.90;99.90;;;;;;5033927;28;20037;-64
2022/10/07 01:38:16;;;;;;;6.13;3.00;;;10.10;99.90;;;;;;5033838;28;20053;-64
2022/10/07 01:40:50;;;;;;;11.32;3.38;;;10.00;99.90;;;;;;5033588;28;20037;-64
2022/10/07 01:43:18;;;;;;;14.15;4.80;;;10.30;99.90;;;;;;5034046;28;20040;-64
2022/10/07 01:45:47;;;;;;;8.38;3.60;;;10.00;99.90;;;;;;5029241;28;20075;-64
2022/10/07 01:48:13;;;;;;;12.15;3.45;;;10.00;99.90;;;;;;5032489;28;20095;-64
2022/10/07 01:50:39;;;;;;;7.63;3.10;;;10.10;99.90;;;;;;5033622;28;20034;-64
2022/10/07 01:53:33;;;;;;;15.23;3.42;;;10.00;99.90;;;;;;5033320;28;20034;-64
2022/10/07 01:56:10;;;;;;;12.73;3.28;;;10.10;99.90;;;;;;5032148;28;20041;-64
2022/10/07 01:58:56;;;;;;;7.03;3.35;;;10.10;99.90;;;;;;5033442;28;20530;-64
2022/10/07 02:01:32;;;;;;;10.55;3.00;;;10.10;99.90;;;;;;5032139;28;20045;-64
2022/10/07 02:04:36;;;;;;;8.27;3.50;;;10.10;99.90;;;;;;5033619;28;20450;-64
2022/10/07 02:07:16;;;;;;;8.60;3.33;;;10.10;99.90;;;;;;5016553;28;20187;-64
2022/10/07 02:09:54;;;;;;;11.38;3.30;;;10.30;99.90;;;;;;5031817;28;20053;-64
2022/10/07 02:12:27;;;;;;;15.07;4.97;;;10.20;99.90;;;;;;5033489;28;20391;-64
2022/10/07 02:15:21;;;;;;;11.60;3.50;;;10.00;99.90;;;;;;5031886;28;21149;-64
2022/10/07 02:17:53;;;;;;;10.15;4.20;;;9.90;99.90;;;;;;5031541;28;20041;-64
2022/10/07 02:20:24;;;;;;;10.88;3.92;;;10.00;99.90;;;;;;5031680;28;20044;-64
2022/10/07 02:22:50;;;;;;;13.85;3.63;;;10.10;99.90;;;;;;5033308;28;20091;-64
2022/10/07 02:25:19;;;;;;;15.38;3.63;;;10.00;99.90;;;;;;5033144;28;20038;-64
2022/10/07 02:27:47;;;;;;;12.50;3.92;;;10.00;99.90;;;;;;5033002;28;20534;-64
2022/10/07 02:30:15;;;;;;;13.68;4.72;;;10.00;99.90;;;;;;5032955;28;20084;-64
2022/10/07 02:32:46;;;;;;;14.27;3.85;;;10.00;99.90;;;;;;5029929;28;20049;-64
2022/10/07 02:35:47;;;;;;;12.13;4.32;;;10.10;99.90;;;;;;5033267;28;20064;-64
2022/10/07 02:38:15;;;;;;;14.10;4.22;;;10.30;99.90;;;;;;4988299;28;20054;-64
2022/10/07 02:40:48;;;;;;;18.27;4.28;;;10.00;99.90;;;;;;5025603;28;20582;-64
2022/10/07 02:43:27;;;;;;;9.93;3.75;;;10.20;99.90;;;;;;5032786;28;20454;-64
2022/10/07 02:46:15;;;;;;;12.30;3.78;;;10.20;99.90;;;;;;5032831;28;20179;-64
2022/10/07 02:48:49;;;;;;;14.68;3.95;;;9.80;99.90;;;;;;5019074;28;20038;-64
2022/10/07 02:51:19;;;;;;;10.88;3.95;;;9.70;99.90;;;;;;5032823;28;20033;-64
2022/10/07 02:53:48;;;;;;;18.10;4.30;;;9.90;99.90;;;;;;5017108;28;20519;-64
2022/10/07 02:56:16;;;;;;;10.82;3.70;;;9.80;99.90;;;;;;5011684;28;20045;-64
2022/10/07 02:58:45;;;;;;;11.93;4.65;;;9.80;99.90;;;;;;5012958;28;20129;-64
2022/10/07 03:01:16;;;;;;;20.08;4.13;;;9.70;99.90;;;;;;5018304;28;20421;-64
2022/10/07 03:03:43;;;;;;;16.17;4.25;;;9.90;99.90;;;;;;5032527;28;20405;-64
2022/10/07 03:06:11;;;;;;;17.02;4.10;;;9.80;99.90;;;;;;5016611;28;20084;-64
2022/10/07 03:08:37;;;;;;;15.95;4.15;;;9.90;99.90;;;;;;5021539;28;20076;-64
2022/10/07 03:11:03;;;;;;;20.52;5.00;;;9.70;99.90;;;;;;5011510;28;20077;-64
2022/10/07 03:13:30;;;;;;;12.02;4.18;;;;;;;;;;5012806;28;20054;-64
2022/10/07 03:15:55;;;;;;;16.98;3.95;;;9.70;99.90;;;;;;5025624;28;20059;-64
2022/10/07 03:18:27;;;;;;;12.20;4.45;;;9.60;99.90;;;;;;5024909;28;20112;-64
2022/10/07 03:20:54;;;;;;;14.30;5.28;;;9.50;99.90;;;;;;5024863;28;20053;-64
2022/10/07 03:23:21;;;;;;;18.17;4.60;;;;;;;;;;5027283;28;20038;-64
2022/10/07 03:25:51;;;;;;;20.80;5.93;;;9.60;99.90;;;;;;5024035;28;20053;-64
2022/10/07 03:28:21;;;;;;;11.77;4.25;;;9.50;99.90;;;;;;5032295;28;20041;-64
2022/10/07 03:30:47;;;;;;;14.70;4.47;;;9.50;99.90;;;;;;5004165;28;20042;-64
2022/10/07 03:33:13;;;;;;;17.60;4.15;;;9.40;99.90;;;;;;5026404;28;20046;-64
2022/10/07 03:35:39;;;;;;;14.90;4.97;;;9.60;99.90;;;;;;5011664;28;20046;-64
2022/10/07 03:38:07;;;;;;;16.80;4.63;;;9.40;99.90;;;;;;5012726;28;20515;-64
2022/10/07 03:40:33;;;;;;;8.93;3.90;;;9.50;99.90;;;;;;5018585;28;20049;-64
2022/10/07 03:42:59;;;;;;;15.45;3.83;;;9.50;99.90;;;;;;5019005;28;20492;-64
2022/10/07 03:45:25;;;;;;;13.02;4.65;;;9.50;99.90;;;;;;5019300;28;20045;-64
2022/10/07 03:47:51;;;;;;;15.05;4.25;;;;;;;;;;5031057;28;20052;-64
2022/10/07 03:50:17;;;;;;;18.33;5.05;;;9.40;99.90;;;;;;5030115;28;20037;-64
2022/10/07 03:52:44;;;;;;;9.32;3.72;;;9.60;99.90;;;;;;5015241;28;20042;-64
2022/10/07 03:55:10;;;;;;;12.07;4.53;;;9.50;99.90;;;;;;5015406;28;20053;-64
2022/10/07 03:57:52;;;;;;;12.85;4.68;;;9.40;99.90;;;;;;5034556;28;20518;-64
2022/10/07 04:00:20;;;;;;;18.48;4.35;;;9.30;99.90;;;;;;5021139;28;20531;-64
2022/10/07 04:02:46;;;;;;;15.85;4.63;;;9.50;99.90;;;;;;5014841;28;20551;-64
2022/10/07 04:05:14;;;;;;;16.20;4.75;;;9.40;99.90;;;;;;5014824;28;20404;-64
2022/10/07 04:07:44;;;;;;;12.07;4.80;;;9.40;99.90;;;;;;5021105;28;20041;-64
2022/10/07 04:10:13;;;;;;;12.02;4.75;;;9.40;99.90;;;;;;5022686;28;20068;-63
2022/10/07 04:12:38;;;;;;;14.30;5.53;;;9.20;99.90;;;;;;5029488;28;20084;-64
2022/10/07 04:15:04;;;;;;;16.08;4.63;;;9.30;99.90;;;;;;5015659;28;20062;-64
2022/10/07 04:17:30;;;;;;;12.95;4.28;;;9.20;99.90;;;;;;5014338;28;20053;-64
2022/10/07 04:19:56;;;;;;;11.48;4.38;;;9.40;99.90;;;;;;5015753;28;20046;-64
2022/10/07 04:22:23;;;;;;;13.32;4.90;;;9.30;99.90;;;;;;5014653;28;20062;-64
2022/10/07 04:25:32;;;;;;;13.55;4.43;;;9.40;99.90;;;;;;5028952;28;20045;-63
2022/10/07 04:27:34;;;;;;;;;;;9.50;99.90;;;;;;5015669;28;20135;-64
2022/10/07 04:30:00;;;;;;;18.85;5.07;;;9.50;99.90;;;;;;5014283;28;19925;-64
2022/10/07 04:32:26;;;;;;;15.77;4.85;;;9.30;99.90;;;;;;5028346;28;20118;-64
2022/10/07 04:34:51;;;;;;;18.70;5.32;;;9.50;99.90;;;;;;5014612;28;20439;-63
2022/10/07 04:37:18;;;;;;;13.90;4.80;;;9.30;99.90;;;;;;5015446;28;20084;-64
2022/10/07 04:39:44;;;;;;;12.60;4.35;;;;;;;;;;5015135;28;20033;-64
2022/10/07 04:43:17;;;;;;;22.10;6.55;;;9.30;99.90;;;;;;5027967;28;20046;-64
2022/10/07 04:44:55;;;;;;;;;;;;;;;;;;5026292;28;20057;-64
2022/10/07 04:47:20;;;;;;;20.05;4.97;;;9.10;99.90;;;;;;5027594;28;20390;-64
2022/10/07 04:49:47;;;;;;;16.63;5.07;;;9.30;99.90;;;;;;5013684;28;20045;-63
2022/10/07 04:52:12;;;;;;;15.00;5.50;;;9.30;99.90;;;;;;5032783;28;20556;-64
2022/10/07 04:54:38;;;;;;;19.80;4.75;;;9.30;99.90;;;;;;5024909;28;20120;-64
2022/10/07 04:57:04;;;;;;;16.30;5.32;;;9.40;99.90;;;;;;5016684;28;20041;-64
2022/10/07 04:59:30;;;;;;;15.43;5.18;;;9.30;99.90;;;;;;5034775;28;20038;-64
2022/10/07 05:01:56;;;;;;;24.67;5.40;;;9.40;99.90;;;;;;5033269;28;20049;-64
2022/10/07 05:04:21;;;;;;;20.90;4.35;;;9.30;99.90;;;;;;5027372;28;20042;-64
2022/10/07 05:06:47;;;;;;;15.38;5.03;;;9.30;99.90;;;;;;5014696;28;20072;-64
2022/10/07 05:09:13;;;;;;;15.43;4.38;;;9.20;99.90;;;;;;5013334;28;20042;-64
2022/10/07 05:11:38;;;;;;;12.55;4.30;;;9.30;99.90;;;;;;5024607;28;20045;-64
2022/10/07 05:14:04;;;;;;;18.77;5.20;;;9.30;99.90;;;;;;5016936;28;20112;-64
2022/10/07 05:16:29;;;;;;;18.27;5.22;;;9.30;99.90;;;;;;5014492;28;20061;-64
2022/10/07 05:18:56;;;;;;;14.30;5.55;;;;;;;;;;5027024;28;20072;-64
2022/10/07 05:21:21;;;;;;;16.80;4.80;;;9.40;99.90;;;;;;5028144;28;20488;-64
2022/10/07 05:23:47;;;;;;;13.02;4.93;;;9.30;99.90;;;;;;5013065;28;20038;-64
2022/10/07 05:26:14;;;;;;;21.20;5.95;;;9.40;99.90;;;;;;5000589;28;20040;-64
2022/10/07 05:28:40;;;;;;;15.85;5.30;;;9.30;99.90;;;;;;5034383;28;20112;-64
2022/10/07 05:31:11;;;;;;;23.33;6.70;;;9.50;99.90;;;;;;5020198;28;20049;-63
2022/10/07 05:33:38;;;;;;;16.95;6.18;;;9.50;99.90;;;;;;5032917;28;20037;-64
2022/10/07 05:36:06;;;;;;;22.42;5.70;;;9.40;99.90;;;;;;5031615;28;20053;-64
2022/10/07 05:38:32;;;;;;;19.52;5.35;;;9.50;99.90;;;;;;5013150;28;20045;-64
2022/10/07 05:41:00;;;;;;;11.85;4.95;;;9.60;99.90;;;;;;5023193;28;20049;-64
2022/10/07 05:43:28;;;;;;;13.93;5.50;;;9.60;99.90;;;;;;5018167;28;20041;-64
2022/10/07 05:46:02;;;;;;;14.05;6.28;;;9.80;99.90;;;;;;5033557;28;20042;-64
2022/10/07 05:48:28;;;;;;;18.25;5.60;;;9.60;99.90;;;;;;5032376;28;20100;-64
2022/10/07 05:50:58;;;;;;;16.73;6.13;;;9.60;99.90;;;;;;5033640;28;20507;-64
2022/10/07 05:53:28;;;;;;;23.35;6.72;;;9.50;99.90;;;;;;5027533;28;20041;-64
2022/10/07 05:55:53;;;;;;;16.75;6.13;;;9.70;99.90;;;;;;5032306;28;20442;-64
2022/10/07 05:58:20;;;;;;;19.13;5.20;;;9.70;99.90;;;;;;5033732;28;20041;-64
2022/10/07 06:00:54;;;;;;;17.05;6.55;;;9.70;99.90;;;;;;5031895;28;20095;-64
2022/10/07 06:03:20;;;;;;;16.80;6.22;;;9.70;99.90;;;;;;5032137;28;20046;-63
2022/10/07 06:05:49;;;;;;;17.10;5.65;;;9.70;99.90;;;;;;5033146;28;20084;-64
2022/10/07 06:08:17;;;;;;;15.68;5.82;;;9.70;99.90;;;;;;5033220;28;20377;-63
2022/10/07 06:13:26;;;;;;;18.20;5.25;;;9.80;99.90;;;;;;5014349;28;20479;-64
2022/10/07 06:15:52;;;;;;;19.48;5.40;;;9.80;99.90;;;;;;5022683;28;20053;-63
2022/10/07 06:18:18;;;;;;;23.67;6.00;;;9.80;99.90;;;;;;5031732;28;20057;-63
2022/10/07 06:20:53;;;;;;;22.50;5.40;;;10.00;99.90;;;;;;5015277;28;20085;-64
2022/10/07 06:23:18;;;;;;;;;;;9.70;99.90;;;;;;5032081;28;20045;-62
2022/10/07 06:25:51;;;;;;;21.92;7.13;;;9.90;99.90;;;;;;5032449;28;19936;-61
2022/10/07 06:28:17;;;;;;;16.23;5.70;;;10.00;99.90;;;;;;5032439;28;20080;-61
2022/10/07 06:30:42;;;;;;;17.20;5.38;;;10.00;99.90;;;;;;5032500;28;20061;-61
2022/10/07 06:33:08;;;;;;;16.52;5.45;;;;;;;;;;5031668;28;20091;-62
2022/10/07 06:35:34;;;;;;;15.45;5.72;;;;;;;;;;5014908;28;20104;-62
2022/10/07 06:38:00;;;;;;;19.95;5.85;;;10.20;99.90;;;;;;5021845;28;20068;-63
2022/10/07 06:40:26;;;;;;;17.08;5.55;;;;;;;;;;5029202;28;20042;-62
2022/10/07 06:42:52;;;;;;;20.73;5.75;;;;;;;;;;5037827;28;20425;-62
2022/10/07 06:45:18;;;;;;;18.63;6.05;;;;;;;;;;5019884;28;20052;-64
2022/10/07 06:47:43;;;;;;;13.40;5.28;;;10.30;99.90;;;;;;5011607;28;20042;-64
2022/10/07 06:50:09;;;;;;;16.48;5.20;;;10.30;99.90;;;;;;5015729;28;20034;-64
2022/10/07 06:52:35;;;;;;;19.60;4.97;;;;;;;;;;5017119;28;20212;-62
2022/10/07 06:55:00;;;;;;;18.30;5.10;;;10.40;99.90;;;;;;5025189;28;20037;-63
2022/10/07 06:57:26;;;;;;;17.30;4.97;;;10.40;99.90;;;;;;5016157;28;20744;-63
2022/10/07 06:59:53;;;;;;;19.83;5.47;;;10.60;99.90;;;;;;5011869;28;20475;-62
2022/10/07 07:02:19;;;;;;;15.18;4.63;;;;;;;;;;5029180;28;20044;-63
2022/10/07 07:04:45;;;;;;;20.45;5.82;;;10.70;99.90;;;;;;5030479;28;20045;-63
2022/10/07 07:07:10;;;;;;;20.70;6.07;;;10.70;99.90;;;;;;5030065;28;20041;-63
2022/10/07 07:09:36;;;;;;;19.25;6.22;;;10.90;99.90;;;;;;5031737;28;20033;-63
2022/10/07 07:12:01;;;;;;;21.92;4.38;;;10.80;99.90;;;;;;5030158;28;20033;-64
2022/10/07 07:14:27;;;;;;;16.60;5.50;;;10.70;99.90;;;;;;5029745;28;20045;-63
2022/10/07 07:16:53;;;;;;;16.02;4.82;;;;;;;;;;5013670;28;20049;-65
2022/10/07 07:19:19;;;;;;;20.55;4.75;;;10.90;99.90;;;;;;5030069;28;20053;-64
2022/10/07 07:21:45;;;;;;;26.52;6.40;;;10.90;99.90;;;;;;5031511;28;20041;-63
2022/10/07 07:24:10;;;;;;;20.98;4.75;;;11.10;99.90;;;;;;5031295;28;20084;-63
2022/10/07 07:26:38;;;;;;;14.65;4.63;;;;;;;;;;5030876;28;20048;-63
2022/10/07 07:29:05;;;;;;;16.00;4.65;;;11.20;99.90;;;;;;5034337;28;20046;-63
2022/10/07 07:31:33;;;;;;;13.43;4.90;;;11.30;99.90;;;;;;5034128;28;20072;-63
2022/10/07 07:34:01;;;;;;;11.93;3.90;;;11.20;99.90;;;;;;5035720;28;20042;-63
2022/10/07 07:36:28;;;;;;;17.85;5.30;;;;;;;;;;5035368;28;20068;-63
2022/10/07 07:38:56;;;;;;;14.43;4.47;;;11.90;99.90;;;;;;5034018;28;20041;-63
2022/10/07 07:41:25;;;;;;;14.35;3.90;;;11.80;99.90;;;;;;5034172;28;20057;-63
2022/10/07 07:43:53;;;;;;;15.35;5.25;;;11.80;99.90;;;;;;5033836;28;20049;-64
2022/10/07 07:46:20;;;;;;;15.15;4.65;;;11.70;99.90;;;;;;5035877;28;20099;-64
2022/10/07 07:48:46;;;;;;;20.20;4.30;;;11.70;99.90;;;;;;5031631;28;20088;-63
2022/10/07 07:51:14;;;;;;;18.20;4.85;;;11.60;99.90;;;;;;5025213;28;20046;-63
2022/10/07 07:53:40;;;;;;;22.20;4.30;;;11.50;99.90;;;;;;5033968;28;20484;-63
2022/10/07 07:56:07;;;;;;;8.85;3.70;;;11.50;99.90;;;;;;5034799;28;20033;-64
2022/10/07 07:58:32;;;;;;;19.90;4.85;;;11.70;99.90;;;;;;5034188;28;20124;-63
2022/10/07 08:01:06;;;;;;;14.38;3.78;;;11.80;99.90;;;;;;5034336;28;20120;-63
2022/10/07 08:03:36;;;;;;;16.75;4.15;;;11.90;99.90;;;;;;5034549;28;20056;-64
2022/10/07 08:06:03;;;;;;;13.80;4.32;;;12.70;99.90;;;;;;5033435;28;20044;-64
2022/10/07 08:08:29;;;;;;;14.55;3.90;;;12.20;99.90;;;;;;5033408;28;20041;-63
2022/10/07 08:10:55;;;;;;;15.85;4.22;;;12.40;99.90;;;;;;5034609;28;20040;-65
2022/10/07 08:13:21;;;;;;;20.40;4.00;;;;;;;;;;5021711;28;20052;-64
2022/10/07 08:15:47;;;;;;;10.32;3.95;;;13.00;99.90;;;;;;5015503;28;20563;-64
2022/10/07 08:18:12;;;;;;;16.33;4.53;;;13.10;99.90;;;;;;5032875;28;20396;-65
2022/10/07 08:20:38;;;;;;;14.18;3.75;;;13.50;99.90;;;;;;5003002;28;20095;-65
2022/10/07 08:23:04;;;;;;;19.77;4.10;;;14.00;99.90;;;;;;5027493;28;20073;-64
2022/10/07 08:25:29;;;;;;;10.07;3.65;;;14.50;99.90;;;;;;5019742;28;20054;-64
2022/10/07 08:27:55;;;;;;;16.17;3.28;;;14.90;99.90;;;;;;5019108;28;20033;-65
2022/10/07 08:30:21;;;;;;;13.75;3.30;;;15.50;99.90;;;;;;5033339;28;20125;-64
2022/10/07 08:32:46;;;;;;;17.10;3.10;;;15.60;99.90;;;;;;5031966;28;20100;-64
2022/10/07 08:35:12;;;;;;;12.05;3.13;;;15.40;99.90;;;;;;5018455;28;20045;-65
2022/10/07 08:37:37;;;;;;;12.07;3.05;;;15.90;99.90;;;;;;5020662;28;20459;-64
2022/10/07 08:40:03;;;;;;;12.52;2.72;;;15.90;99.90;;;;;;5018698;28;20428;-64
2022/10/07 08:42:41;;;;;;;16.58;2.78;;;15.70;99.90;;;;;;5014355;28;20123;-64
2022/10/07 08:45:15;;;;;;;12.88;3.15;;;15.70;99.90;;;;;;5025943;28;20041;-64
2022/10/07 08:47:44;;;;;;;10.35;2.47;;;15.60;99.90;;;;;;5027180;28;20148;-64
2022/10/07 08:50:18;;;;;;;12.45;2.72;;;16.60;99.90;;;;;;5016979;28;20049;-64
2022/10/07 08:52:53;;;;;;;11.90;3.67;;;16.40;99.90;;;;;;5015404;28;20048;-64
2022/10/07 08:56:07;;;;;;;18.30;3.22;;;16.30;99.90;;;;;;5017077;28;20033;-63
2022/10/07 08:59:03;;;;;;;11.98;3.05;;;16.50;99.90;;;;;;4989757;28;20056;-63
2022/10/07 09:01:50;;;;;;;13.20;2.30;;;16.80;99.90;;;;;;5032630;28;20055;-65
2022/10/07 09:04:37;;;;;;;14.85;3.30;;;17.30;99.90;;;;;;5032334;28;20492;-64
2022/10/07 09:07:19;;;;;;;17.45;3.38;;;17.30;99.90;;;;;;5022675;28;20096;-64
2022/10/07 09:10:04;;;;;;;10.10;2.80;;;17.40;99.90;;;;;;5029450;28;20100;-65
2022/10/07 09:12:56;;;;;;;9.13;2.65;;;17.90;99.90;;;;;;5024549;28;20044;-64
2022/10/07 09:15:38;;;;;;;11.80;2.42;;;18.80;99.90;;;;;;5025038;28;20061;-64
2022/10/07 09:18:23;;;;;;;16.48;3.05;;;19.10;99.90;;;;;;5013788;28;20085;-65
2022/10/07 09:20:52;;;;;;;13.63;2.63;;;19.30;99.90;;;;;;5017841;28;20053;-64
2022/10/07 09:23:38;;;;;;;16.35;2.60;;;20.00;99.90;;;;;;5024188;28;20049;-64
2022/10/07 09:26:12;;;;;;;18.05;3.58;;;20.50;99.90;;;;;;5022460;28;20042;-64
2022/10/07 09:28:38;;;;;;;14.05;2.55;;;20.00;99.90;;;;;;4999043;28;20033;-65
2022/10/07 09:31:03;;;;;;;14.10;2.33;;;22.10;99.90;;;;;;5023620;28;20099;-63
2022/10/07 09:33:29;;;;;;;13.32;2.85;;;21.10;99.90;;;;;;5033054;28;20407;-65
2022/10/07 09:36:08;;;;;;;13.07;2.30;;;20.60;99.90;;;;;;5033404;28;20044;-65
2022/10/07 09:38:41;;;;;;;10.77;3.05;;;19.70;99.90;;;;;;5027667;28;20080;-65
2022/10/07 09:41:18;;;;;;;16.48;2.55;;;17.80;99.90;;;;;;5022365;28;20077;-65
2022/10/07 09:44:04;;;;;;;15.85;2.58;;;17.30;99.90;;;;;;5030326;28;20041;-65
2022/10/07 09:46:47;;;;;;;11.27;2.33;;;16.80;99.90;;;;;;5033068;28;20042;-64
2022/10/07 09:49:28;;;;;;;13.52;2.72;;;16.40;99.90;;;;;;5031210;28;20041;-65
2022/10/07 09:51:59;;;;;;;10.52;2.70;;;16.10;99.90;;;;;;5031564;28;20044;-65
2022/10/07 09:54:25;;;;;;;17.15;3.75;;;16.10;99.90;;;;;;5031621;28;20049;-65
2022/10/07 09:56:56;;;;;;;14.98;2.53;;;15.80;99.90;;;;;;5018706;28;20045;-65
2022/10/07 09:59:22;;;;;;;19.45;3.75;;;;;;;;;;5012096;28;20050;-65
2022/10/07 10:01:52;;;;;;;16.88;2.55;;;15.70;99.90;;;;;;5024853;28;20072;-65
2022/10/07 10:04:22;;;;;;;12.95;2.88;;;15.70;99.90;;;;;;5031199;28;20491;-65
2022/10/07 10:06:49;;;;;;;18.20;3.05;;;15.60;99.90;;;;;;5019300;28;20050;-65
2022/10/07 10:09:23;;;;;;;10.98;2.80;;;15.60;99.90;;;;;;5025423;28;20042;-65
2022/10/07 10:12:09;;;;;;;9.90;2.63;;;15.70;99.90;;;;;;5024368;28;20037;-65
2022/10/07 10:14:57;;;;;;;11.68;2.50;;;15.50;99.90;;;;;;5019016;28;20450;-65
2022/10/07 10:17:43;;;;;;;13.45;2.78;;;15.50;99.90;;;;;;5032821;28;20072;-65
2022/10/07 10:20:29;;;;;;;12.85;2.50;;;15.40;99.90;;;;;;5020890;28;20057;-65
2022/10/07 10:22:54;;;;;;;;;;;15.40;99.90;;;;;;5012125;28;20034;-65
2022/10/07 10:28:50;;;;;;;17.73;3.00;;;15.60;99.90;;;;;;5021135;28;20508;-64
2022/10/07 10:31:39;;;;;;;12.43;2.50;;;15.50;99.90;;;;;;5030949;28;20038;-65
2022/10/07 10:34:26;;;;;;;12.73;2.50;;;15.60;99.90;;;;;;5018328;28;20045;-65
2022/10/07 10:37:04;;;;;;;12.60;2.60;;;15.70;99.90;;;;;;5012436;28;20053;-64
2022/10/07 10:39:46;;;;;;;14.35;3.28;;;15.60;99.90;;;;;;5018226;28;20048;-66
2022/10/07 10:42:21;;;;;;;15.07;2.63;;;15.70;99.90;;;;;;5013302;28;20096;-64
2022/10/07 10:45:26;;;;;;;13.40;2.83;;;15.70;99.90;;;;;;5014650;28;20038;-64
2022/10/07 10:47:52;;;;;;;10.73;2.42;;;;;;;;;;5029160;28;20045;-66
2022/10/07 10:50:34;;;;;;;15.32;2.55;;;15.80;99.90;;;;;;5029664;28;20041;-64
2022/10/07 10:53:06;;;;;;;18.17;2.50;;;15.70;99.90;;;;;;5021277;28;20045;-65
2022/10/07 10:55:40;;;;;;;14.70;2.90;;;15.80;99.90;;;;;;5030701;28;20045;-65
2022/10/07 10:58:36;;;;;;;12.85;2.08;;;15.80;99.90;;;;;;5031084;28;20743;-66
2022/10/07 11:01:36;;;;;;;8.70;2.47;;;15.80;99.90;;;;;;5024907;28;20167;-66
2022/10/07 11:04:16;;;;;;;8.57;2.53;;;16.00;99.90;;;;;;5033312;28;20072;-65
2022/10/07 11:06:47;;;;;;;14.15;2.72;;;16.00;99.90;;;;;;5034720;28;20510;-65
2022/10/07 11:09:25;;;;;;;16.08;3.28;;;16.10;99.90;;;;;;5035362;28;20037;-66
2022/10/07 11:11:51;;;;;;;8.40;2.08;;;16.30;99.90;;;;;;5029615;28;20083;-66
2022/10/07 11:14:21;;;;;;;9.15;2.20;;;16.40;99.90;;;;;;5035753;28;20034;-67
2022/10/07 11:16:53;;;;;;;11.40;2.40;;;16.50;99.90;;;;;;5034645;28;20061;-66
2022/10/07 11:19:25;;;;;;;11.00;2.50;;;16.50;99.90;;;;;;5033205;28;20081;-66
2022/10/07 11:21:53;;;;;;;10.23;2.10;;;16.60;99.90;;;;;;5025863;28;20541;-66
2022/10/07 11:24:38;;;;;;;18.70;3.03;;;16.60;99.90;;;;;;5034295;28;20050;-66
2022/10/07 11:27:19;;;;;;;15.02;3.00;;;16.70;99.90;;;;;;5030381;28;20487;-66
2022/10/07 11:30:02;;;;;;;16.85;2.42;;;16.70;99.90;;;;;;5035555;28;20045;-66
2022/10/07 11:32:28;;;;;;;14.63;2.10;;;16.80;99.90;;;;;;5034257;28;20047;-66
2022/10/07 11:35:24;;;;;;;12.13;2.40;;;16.80;99.90;;;;;;5034405;28;20045;-66
2022/10/07 11:37:58;;;;;;;9.27;1.85;;;16.80;99.90;;;;;;5030548;28;20526;-66
2022/10/07 11:40:28;;;;;;;11.52;2.10;;;16.80;99.90;;;;;;5033658;28;20164;-66
2022/10/07 11:42:56;;;;;;;8.80;2.22;;;16.70;99.90;;;;;;5027512;28;20038;-66
2022/10/07 11:45:33;;;;;;;8.13;2.17;;;16.60;99.90;;;;;;5023506;28;20037;-66
2022/10/07 11:48:05;;;;;;;13.20;2.20;;;16.60;99.90;;;;;;5015327;28;20113;-66
2022/10/07 11:50:36;;;;;;;10.27;2.30;;;16.60;99.90;;;;;;5021068;28;20037;-66
2022/10/07 11:53:09;;;;;;;10.80;2.17;;;16.50;99.90;;;;;;5023398;28;20116;-64
2022/10/07 11:55:43;;;;;;;14.73;2.97;;;15.70;99.90;;;;;;5017845;28;20041;-65
2022/10/07 11:58:24;;;;;;;15.93;2.65;;;16.50;99.90;;;;;;5018956;28;20153;-64
2022/10/07 12:00:49;;;;;;;12.52;2.72;;;16.30;99.90;;;;;;5017950;28;20038;-64
2022/10/07 12:03:18;;;;;;;9.93;2.03;;;16.40;99.90;;;;;;5013175;28;20385;-65
2022/10/07 12:05:53;;;;;;;13.63;2.38;;;16.30;99.90;;;;;;5016056;28;20143;-65
2022/10/07 12:08:37;;;;;;;11.55;2.20;;;16.20;99.90;;;;;;5020359;28;20045;-64
2022/10/07 12:11:13;;;;;;;15.17;2.20;;;16.30;99.90;;;;;;5033435;28;20073;-65
2022/10/07 12:13:49;;;;;;;14.27;2.08;;;16.30;99.90;;;;;;5032616;28;20511;-64
2022/10/07 12:16:30;;;;;;;8.68;2.08;;;16.30;99.90;;;;;;5029998;28;20111;-64
2022/10/07 12:19:09;;;;;;;13.32;3.45;;;16.10;99.90;;;;;;5033325;28;20056;-64
2022/10/07 12:21:58;;;;;;;13.10;3.25;;;16.20;99.90;;;;;;5034950;28;20114;-64
2022/10/07 12:24:28;;;;;;;17.65;2.63;;;16.20;99.90;;;;;;5033180;28;20435;-64
2022/10/07 12:27:16;;;;;;;12.48;1.77;;;16.20;99.90;;;;;;5034538;28;20030;-65
2022/10/07 12:29:57;;;;;;;19.75;2.65;;;16.20;99.90;;;;;;5034435;28;20041;-64
2022/10/07 12:32:50;;;;;;;10.52;1.88;;;16.20;99.90;;;;;;5034366;28;20083;-64
2022/10/07 12:35:33;;;;;;;13.02;2.67;;;16.20;99.90;;;;;;5032563;28;20121;-64
2022/10/07 12:38:15;;;;;;;13.65;2.40;;;16.20;99.90;;;;;;5032984;28;20037;-65
2022/10/07 12:40:43;;;;;;;11.35;2.53;;;16.20;99.90;;;;;;5025680;28;20385;-64
2022/10/07 12:43:28;;;;;;;7.65;2.45;;;16.30;99.90;;;;;;5019363;28;20077;-64
2022/10/07 12:45:55;;;;;;;14.50;2.35;;;16.30;99.90;;;;;;5031054;28;20045;-64
2022/10/07 12:48:23;;;;;;;14.05;2.15;;;16.40;99.90;;;;;;5033054;28;20068;-64
2022/10/07 12:50:51;;;;;;;13.23;2.00;;;16.30;99.90;;;;;;5034323;28;20047;-64
2022/10/07 12:53:22;;;;;;;15.38;2.50;;;16.50;99.90;;;;;;5034387;28;20045;-65
2022/10/07 12:55:51;;;;;;;10.85;2.13;;;16.50;99.90;;;;;;5027983;28;20038;-64
2022/10/07 13:02:05;;;;;;;7.43;2.10;;;16.50;99.90;;;;;;5012930;28;20093;-65
2022/10/07 13:05:12;;;;;;;12.38;2.47;;;16.60;99.90;;;;;;5003464;28;20050;-64
2022/10/07 13:08:24;;;;;;;9.98;2.00;;;16.70;99.90;;;;;;5033229;28;20045;-64
2022/10/07 13:11:04;;;;;;;12.07;2.42;;;16.60;99.90;;;;;;5020142;28;20037;-64
2022/10/07 13:13:30;;;;;;;11.38;2.05;;;;;;;;;;5033417;28;20045;-65
2022/10/07 13:16:11;;;;;;;11.60;1.98;;;16.70;99.90;;;;;;5033487;28;20055;-64
2022/10/07 13:18:56;;;;;;;9.55;1.83;;;16.60;99.90;;;;;;5031228;28;20215;-64
2022/10/07 13:21:43;;;;;;;15.18;2.50;;;16.60;99.90;;;;;;5012845;28;20511;-64